Latest Coastal Weather Observations for Sunshine Coast Airport

IDQ60701

Issued at 4:22 am EST Tuesday 19 January 2021 (issued every 10 minutes, with the page automatically refreshed every 10 minutes)

About coastal observations | Map of coastal stations | Coastal observations for QLD | Marine services | Other Formats
Station Details ID: 040861 Name: SUNSHINE COAST AIRPORT Lat: -26.60 Lon: 153.09 Height: 3.42 m
Data from the previous 72 hours. | See also: Recent months at Sunshine Coast Airport
Date/Time
EST
Wind Sea
Height
m
Swell Vis
km
Cloud Weather Temp
°C
Press
MSL
hPa
Rain since
9am
mm
Dir  Spd
kts
Gust
kts
Height
m
Period
s
Dir
19/04:00am W 7 8 - - - - 10 Partly cloudy - 20.2 1012.0 15.2
19/03:44am WNW 6 8 - - - - 10 Partly cloudy - 20.1 1011.9 15.2
19/03:30am WNW 7 8 - - - - 10 Partly cloudy - 20.1 1012.0 15.0
19/03:00am WNW 4 6 - - - - 10 Cloudy Rain 20.2 1011.9 14.8
19/02:48am WNW 4 5 - - - - 10 Partly cloudy - 20.2 1012.0 14.8
19/02:30am SW 5 8 - - - - 10 Partly cloudy - 20.4 1012.4 14.8
19/02:00am SW 9 13 - - - - 10 Partly cloudy - 20.3 1012.9 14.4
19/01:30am SW 10 13 - - - - 8 Partly cloudy - 20.0 1013.3 14.2
19/01:11am SW 11 14 - - - - 10 Partly cloudy - 20.1 1013.6 13.8
19/01:03am SW 11 15 - - - - 10 Partly cloudy - 20.2 1013.7 13.8
19/01:00am SW 12 15 - - - - 10 Partly cloudy - 20.2 1013.8 13.8
19/12:44am SW 10 13 - - - - 6 Partly cloudy - 20.3 1013.9 13.2
19/12:34am SW 9 13 - - - - 7 Partly cloudy - 20.5 1014.1 12.4
19/12:30am SW 9 11 - - - - 7 Partly cloudy - 20.6 1014.1 12.4
19/12:28am SW 9 11 - - - - 8 Partly cloudy - 20.6 1014.1 12.2
19/12:16am SW 9 12 - - - - 6 Partly cloudy - 20.6 1014.3 12.0
19/12:09am SW 11 15 - - - - 10 Partly cloudy - 20.9 1014.4 12.0
19/12:00am SSW 11 16 - - - - 10 Cloudy Showers 20.8 1014.3 12.0
 
Date/Time
EST
Wind Sea
Height
m
Swell Vis
km
Cloud Weather Temp
°C
Press
MSL
hPa
Rain since
9am
mm
Dir  Spd
kts
Gust
kts
Height
m
Period
s
Dir
18/11:37pm SW 8 11 - - - - 10 Partly cloudy - 21.1 1014.4 12.0
18/11:33pm SW 10 15 - - - - 10 Partly cloudy - 21.1 1014.5 12.0
18/11:30pm SSW 10 15 - - - - 10 Partly cloudy - 21.1 1014.4 12.0
18/11:00pm SW 12 18 - - - - 5 Partly cloudy - 21.5 1014.5 11.6
18/10:54pm SSW 12 18 - - - - 6 Partly cloudy - 21.6 1014.5 11.4
18/10:44pm SSW 10 15 - - - - 10 Partly cloudy - 22.5 1014.3 11.2
18/10:30pm SSW 9 16 - - - - 10 Partly cloudy - 22.3 1014.1 11.0
18/10:20pm W 4 8 - - - - 10 Partly cloudy - 23.1 1014.1 10.8
18/10:05pm NW 9 14 - - - - 10 Partly cloudy - 22.9 1014.1 10.6
18/10:01pm NW 9 14 - - - - 10 Partly cloudy - 23.1 1013.9 10.4
18/10:00pm NW 10 14 - - - - 10 Partly cloudy - 23.1 1013.9 10.2
18/09:45pm W 6 8 - - - - 6 Partly cloudy - 23.9 1013.3 9.4
18/09:30pm NW 8 10 - - - - 8 Partly cloudy - 24.0 1013.4 8.2
18/09:00pm NW 9 11 - - - - 8 Partly cloudy Rain 24.2 1013.1 6.4
18/08:58pm NW 9 11 - - - - 8 Partly cloudy - 24.2 1013.1 6.2
18/08:45pm NNW 10 12 - - - - 6 Partly cloudy - 24.4 1013.1 5.4
18/08:30pm N 11 16 - - - - 8 Partly cloudy - 24.5 1012.8 3.4
18/08:00pm NNE 16 21 - - - - 10 Partly cloudy - 25.2 1011.9 0.8
18/07:30pm NNE 13 19 - - - - 10 Partly cloudy - 25.9 1012.1 0.0
18/07:00pm NNE 17 23 - - - - 10 Partly cloudy - 26.1 1011.3 0.0
18/06:30pm NNE 17 22 - - - - 10 Partly cloudy - 26.1 1010.8 0.0
18/06:00pm NNE 15 20 - - - - 10 Cloudy - 26.2 1011.0 0.0
18/05:30pm NNE 16 20 - - - - 10 Partly cloudy - 26.5 1010.6 0.0
18/05:00pm NNE 15 19 - - - - 10 - - 27.3 1010.6 0.0
18/04:30pm NNE 15 18 - - - - 10 - - 27.8 1010.6 0.0
18/04:00pm NNE 14 17 - - - - 10 - - 28.0 1010.8 0.0
18/03:30pm NNE 14 17 - - - - 10 Partly cloudy - 28.7 1010.7 0.0
18/03:00pm NNE 15 18 - - - - 10 Partly cloudy - 27.9 1010.9 0.0
18/02:30pm NNE 15 18 - - - - 10 - - 28.9 1011.6 0.0
18/02:00pm NNE 15 19 - - - - 10 - - 28.6 1011.9 0.0
18/01:30pm NE 15 18 - - - - 10 Partly cloudy - 28.6 1012.1 0.0
18/01:00pm NNE 12 15 - - - - 10 Partly cloudy - 27.9 1012.8 0.0
18/12:30pm NE 10 14 - - - - 10 Partly cloudy - 28.6 1013.0 0.0
18/12:00pm ENE 12 14 - - - - 10 Mostly clear - 27.2 1013.3 0.0
18/11:30am ENE 14 18 - - - - 10 Partly cloudy - 27.8 1013.6 0.0
18/11:00am NE 11 13 - - - - 10 - - 28.7 1013.9 0.0
18/10:30am NE 10 13 - - - - 10 - - 28.3 1014.0 0.0
18/10:00am NE 9 12 - - - - 10 - - 28.0 1014.0 0.0
18/09:30am NE 9 11 - - - - 10 - - 27.7 1014.1 0.0
18/09:00am NE 9 11 - - - - 10 Mostly clear - 28.4 1014.2 0.2
18/08:30am NE 7 10 - - - - 10 Partly cloudy - 28.1 1014.1 0.2
18/08:00am NNW 6 10 - - - - 10 - - 26.6 1014.1 0.2
18/07:30am NW 6 7 - - - - 10 Partly cloudy - 25.4 1014.1 0.2
18/07:00am W 6 8 - - - - 10 Partly cloudy - 24.6 1014.1 0.2
18/06:30am WSW 3 5 - - - - 10 Partly cloudy - 23.4 1013.7 0.2
18/06:00am W 5 5 - - - - 10 Cloudy - 23.0 1013.3 0.2
18/05:30am W 4 5 - - - - 10 Partly cloudy - 22.0 1013.2 0.2
18/05:00am W 4 5 - - - - 10 - - 21.6 1012.6 0.2
18/04:30am WNW 1 5 - - - - 10 - - 21.7 1012.3 0.2
18/04:00am WNW 3 4 - - - - 10 Partly cloudy - 22.1 1012.2 0.2
18/03:30am W 4 5 - - - - 10 - - 21.9 1012.2 0.2
18/03:00am NNW 3 4 - - - - 10 Mostly cloudy Rain 22.5 1012.1 0.2
18/02:30am SW 3 3 - - - - 10 Partly cloudy - 22.8 1012.2 0.2
18/02:00am SW 3 5 - - - - 10 Partly cloudy - 22.9 1012.4 0.0
18/01:30am WSW 3 3 - - - - 10 Partly cloudy - 22.8 1012.6 0.0
18/01:00am W 4 5 - - - - 10 - - 22.8 1012.7 0.0
18/12:30am NW 5 6 - - - - 10 Partly cloudy - 22.7 1012.7 0.0
18/12:00am CALM 0 0 - - - - 10 Cloudy - 22.8 1012.8 0.0
 
Date/Time
EST
Wind Sea
Height
m
Swell Vis
km
Cloud Weather Temp
°C
Press
MSL
hPa
Rain since
9am
mm
Dir  Spd
kts
Gust
kts
Height
m
Period
s
Dir
17/11:30pm W 1 3 - - - - 10 Partly cloudy - 23.2 1013.4 0.0
17/11:00pm W 4 4 - - - - 10 Partly cloudy - 23.1 1013.7 0.0
17/10:30pm WNW 3 4 - - - - 10 - - 24.0 1013.6 0.0
17/10:00pm NNE 7 8 - - - - 10 Partly cloudy - 25.1 1013.9 0.0
17/09:30pm NE 8 10 - - - - 10 Partly cloudy - 25.4 1013.7 0.0
17/09:00pm ENE 8 10 - - - - 10 Cloudy - 25.6 1013.7 0.0
17/08:30pm NE 5 7 - - - - 10 Partly cloudy - 25.2 1013.5 0.0
17/08:00pm NE 6 8 - - - - 10 Partly cloudy - 25.2 1013.0 0.0
17/07:30pm ENE 5 7 - - - - 10 Partly cloudy - 25.4 1013.0 0.0
17/07:00pm ENE 5 7 - - - - 10 Partly cloudy - 25.4 1012.8 0.0
17/06:30pm ENE 5 6 - - - - 10 Partly cloudy - 25.6 1012.7 0.0
17/06:00pm SE 6 9 - - - - 10 Cloudy - 26.0 1012.2 0.0
17/05:30pm SSE 10 13 - - - - 10 Partly cloudy - 26.3 1011.8 0.0
17/05:00pm SSE 11 14 - - - - 10 - - 26.5 1011.6 0.0
17/04:30pm SSE 9 13 - - - - 10 Partly cloudy - 26.1 1011.6 0.0
17/04:25pm SSE 9 13 - - - - 10 Partly cloudy - 26.1 1011.5 0.0
17/04:06pm SE 10 14 - - - - 10 Partly cloudy - 26.1 1011.6 0.0
17/04:00pm SSE 9 13 - - - - 10 Partly cloudy - 26.2 1011.7 0.0
17/03:30pm SSE 9 13 - - - - 10 Partly cloudy - 26.3 1012.0 0.0
17/03:00pm SE 10 13 - - - - 10 Cloudy Drizzle 25.6 1012.2 0.0
17/02:30pm SSE 11 13 - - - - 10 Partly cloudy - 26.8 1012.4 0.0
17/02:00pm SE 11 15 - - - - 10 Partly cloudy - 27.5 1012.6 0.0
17/01:30pm SSE 9 13 - - - - 10 Partly cloudy - 25.8 1012.9 0.0
17/01:00pm SE 8 11 - - - - 10 Partly cloudy - 25.8 1013.2 0.0
17/12:30pm SSE 9 12 - - - - 10 Partly cloudy - 26.0 1013.1 0.0
17/12:00pm SE 10 14 - - - - 10 Cloudy Recent precip. 25.9 1013.1 0.0
17/11:30am SE 11 15 - - - - 10 Cloudy - 25.7 1013.4 0.0
17/11:00am SE 11 14 - - - - 10 Cloudy - 26.8 1013.4 0.0
17/10:30am SE 12 16 - - - - 10 Cloudy - 27.5 1013.3 0.0
17/10:00am SE 12 16 - - - - 10 Cloudy - 26.4 1013.5 0.0
17/09:30am SE 10 14 - - - - 10 Cloudy - 25.8 1013.3 0.0
17/09:00am SE 10 14 - - - - 10 Cloudy - 25.8 1013.2 21.0
17/08:30am SE 11 16 - - - - 10 Partly cloudy - 26.5 1012.8 21.0
17/08:19am SE 11 15 - - - - 10 Partly cloudy - 25.4 1012.7 21.0
17/08:00am SE 12 15 - - - - 10 Partly cloudy - 25.2 1012.7 21.0
17/07:37am SE 10 15 - - - - 10 Partly cloudy - 25.3 1012.6 21.0
17/07:30am SSE 9 14 - - - - 9 Partly cloudy - 24.2 1012.5 21.0
17/07:27am SSE 10 14 - - - - 5 Partly cloudy - 24.2 1012.5 21.0
17/07:24am SE 11 14 - - - - 4 Partly cloudy - 24.1 1012.6 21.0
17/07:13am ESE 12 16 - - - - 6 Partly cloudy - 24.4 1012.4 19.2
17/07:11am SE 12 16 - - - - 10 Partly cloudy - 24.9 1012.4 18.2
17/07:00am SE 12 16 - - - - 10 Partly cloudy - 25.4 1012.4 18.0
17/06:30am SE 13 17 - - - - 10 Partly cloudy - 25.2 1012.3 18.0
17/06:00am SE 12 16 - - - - 10 Cloudy - 25.0 1012.0 18.0
17/05:51am SE 13 17 - - - - 10 Partly cloudy - 25.0 1011.9 18.0
17/05:30am SE 13 18 - - - - 10 Partly cloudy - 24.9 1011.7 18.0
17/05:27am SE 12 18 - - - - 10 Partly cloudy - 24.8 1011.7 18.0
17/05:00am SSE 13 17 - - - - 10 Partly cloudy - 24.7 1011.3 18.0
17/04:30am SSE 14 19 - - - - 10 Partly cloudy - 24.5 1011.1 18.0
17/04:00am SSE 12 17 - - - - 10 Cloudy - 24.5 1010.9 18.0
17/03:30am SSE 13 17 - - - - 10 Cloudy - 24.1 1010.5 18.0
17/03:26am SSE 13 17 - - - - 10 Cloudy - 24.1 1010.4 18.0
17/03:00am SSE 11 17 - - - - 10 Cloudy - 23.8 1010.3 18.0
17/02:30am SSW 8 10 - - - - 10 Partly cloudy - 23.0 1010.4 18.0
17/02:16am SSW 6 9 - - - - 10 Partly cloudy - 22.4 1010.4 18.0
17/02:00am SSW 6 9 - - - - 10 Partly cloudy - 21.8 1010.3 18.0
17/01:30am WSW 4 5 - - - - 10 - - 21.2 1010.5 18.0
17/01:00am WSW 5 6 - - - - 10 - - 21.4 1010.7 18.0
17/12:30am SW 5 7 - - - - 10 Partly cloudy - 21.6 1010.6 18.0
17/12:00am WSW 4 6 - - - - 10 - - 21.3 1010.6 18.0
 
Date/Time
EST
Wind Sea
Height
m
Swell Vis
km
Cloud Weather Temp
°C
Press
MSL
hPa
Rain since
9am
mm
Dir  Spd
kts
Gust
kts
Height
m
Period
s
Dir
16/11:30pm WSW 5 6 - - - - 10 - - 21.5 1010.8 18.0
16/11:00pm W 5 6 - - - - 10 - - 21.3 1011.0 18.0
16/10:30pm SW 5 7 - - - - 10 - - 21.9 1011.1 18.0
16/10:00pm S 5 5 - - - - 10 - - 22.0 1011.2 18.0
16/09:30pm SW 5 6 - - - - 10 Partly cloudy - 21.8 1011.3 18.0
16/09:00pm WNW 5 7 - - - - 10 Cloudy Showers 21.8 1011.0 18.0
16/08:30pm W 7 9 - - - - 10 Partly cloudy - 21.7 1010.3 17.8
16/08:06pm NW 5 7 - - - - 10 Partly cloudy - 21.6 1009.7 17.8
16/08:02pm N 5 9 - - - - 10 Partly cloudy - 21.6 1009.4 17.8
16/08:00pm NNE 6 11 - - - - 10 Partly cloudy - 21.5 1009.5 17.8
16/07:56pm NNE 7 11 - - - - 10 Partly cloudy - 21.7 1009.7 17.8
16/07:55pm NNE 7 11 - - - - 8 Partly cloudy - 21.7 1009.6 17.8
16/07:30pm SE 8 11 - - - - 6 Partly cloudy - 21.9 1009.8 13.4
16/07:28pm SSE 8 11 - - - - 6 Partly cloudy - 21.9 1009.8 13.0
16/07:02pm S 7 11 - - - - 10 Partly cloudy - 22.0 1009.8 10.6
16/07:00pm SSW 7 11 - - - - 10 Partly cloudy - 22.2 1009.8 10.6
16/06:40pm S 19 31 - - - - 1 Partly cloudy - 22.3 1008.7 8.4
16/06:39pm S 19 31 - - - - 1 Partly cloudy - 22.3 1008.8 7.2
16/06:37pm SSW 19 31 - - - - 4 Partly cloudy - 22.7 1009.0 3.4
16/06:30pm S 14 26 - - - - 10 Partly cloudy - 24.9 1009.0 0.0
16/06:27pm SSE 12 26 - - - - 10 Partly cloudy - 25.3 1008.8 0.0
16/06:00pm E 12 15 - - - - 10 Cloudy Thunderstorm 25.6 1007.3 0.0
16/05:30pm E 9 13 - - - - 10 Partly cloudy - 26.9 1007.2 0.0
16/05:00pm ENE 10 12 - - - - 10 Partly cloudy - 27.1 1006.4 0.0
16/04:30pm NE 11 15 - - - - 10 Partly cloudy - 27.4 1006.3 0.0
16/04:06pm NNE 16 20 - - - - 10 - - 26.8 1005.3 0.0
16/04:00pm NNE 17 20 - - - - 10 - - 26.8 1005.1 0.0
16/03:56pm NE 16 20 - - - - 10 - - 27.0 1005.0 0.0
16/03:30pm NNE 17 21 - - - - 10 - - 27.6 1005.6 0.0
16/03:00pm NNE 19 22 - - - - 10 Partly cloudy - 28.4 1005.3 0.0
16/02:30pm NNE 17 21 - - - - 10 - - 27.0 1005.5 0.0
16/02:00pm NNE 18 21 - - - - 10 - - 29.3 1005.5 0.0
16/01:30pm NNE 18 22 - - - - 10 - - 28.8 1005.5 0.0
16/01:00pm NNE 18 21 - - - - 10 - - 28.9 1005.8 0.0
16/12:30pm NNE 17 21 - - - - 10 - - 29.1 1006.0 0.0
16/12:00pm NE 17 19 - - - - 10 - - 28.6 1006.0 0.0
16/11:30am NNE 16 18 - - - - 10 - - 28.7 1006.3 0.0
16/11:00am NNE 15 17 - - - - 10 - - 28.8 1006.5 0.0
16/10:30am NE 14 17 - - - - 10 - - 28.3 1006.7 0.0
16/10:00am NW 7 11 - - - - 10 - - 30.1 1006.9 0.0
16/09:30am NNW 8 13 - - - - 10 - - 28.8 1007.3 0.0
16/09:00am WNW 8 12 - - - - 10 - - 28.2 1007.6 0.0
16/08:30am NW 9 13 - - - - 10 - - 27.3 1007.8 0.0
16/08:00am NW 8 11 - - - - 10 Partly cloudy - 26.2 1008.2 0.0
16/07:30am N 6 9 - - - - 10 Partly cloudy - 25.0 1008.0 0.0
16/07:00am N 5 8 - - - - 10 Partly cloudy - 23.9 1008.4 0.0
16/06:30am NW 3 5 - - - - 10 Cloudy - 23.3 1008.5 0.0
16/06:00am NW 4 5 - - - - 10 Cloudy - 22.8 1008.2 0.0
16/05:30am WSW 4 5 - - - - 10 Cloudy - 22.3 1008.0 0.0
16/05:00am WNW 4 5 - - - - 10 Cloudy - 21.9 1007.4 0.0
16/04:30am N 5 7 - - - - 10 Partly cloudy - 22.0 1006.8 0.0

Other formats

Comma delimited format used in spreadsheet applications
http://www.bom.gov.au/fwo/IDQ60701/IDQ60701.94569.axf

JavaScript Object Notation format (JSON) in row-major order
http://www.bom.gov.au/fwo/IDQ60701/IDQ60701.94569.json

Data quality

Most of these data are generated automatically and are frequently updated. Quality checks on data are not normally performed. It is possible for incorrect values to appear. Refer to information at About Latest Weather Observations and please check the disclaimer before using these data.